createdAt,value
2019-03-25T00:00:41.539Z,70.56
2019-03-25T00:03:10.201Z,70.59
2019-03-25T00:05:37.580Z,70.75
2019-03-25T00:08:04.697Z,71.00
2019-03-25T00:10:31.752Z,70.91
2019-03-25T00:12:58.794Z,71.06
2019-03-25T00:15:25.842Z,71.34
2019-03-25T00:17:53.226Z,71.08
2019-03-25T00:20:20.589Z,71.25
2019-03-25T00:22:47.636Z,71.41
2019-03-25T00:25:15.008Z,71.35
2019-03-25T00:27:42.342Z,71.56
2019-03-25T00:30:10.367Z,71.50
2019-03-25T00:32:37.656Z,71.68
2019-03-25T00:35:04.968Z,71.30
2019-03-25T00:37:32.248Z,71.31
2019-03-25T00:39:59.543Z,71.38
2019-03-25T00:42:26.905Z,71.18
2019-03-25T00:44:54.213Z,71.12
2019-03-25T00:47:21.612Z,70.98
2019-03-25T00:49:48.968Z,71.03
2019-03-25T00:52:16.015Z,70.76
2019-03-25T00:54:50.046Z,70.30
2019-03-25T00:57:12.449Z,69.22
2019-03-25T00:59:39.502Z,68.54
2019-03-25T01:02:06.852Z,68.13
2019-03-25T01:04:34.208Z,68.43
2019-03-25T01:07:01.268Z,68.20
2019-03-25T01:09:28.302Z,67.28
2019-03-25T01:11:55.656Z,67.03
2019-03-25T01:14:22.698Z,67.41
2019-03-25T01:16:49.839Z,67.44
2019-03-25T01:19:17.212Z,67.08
2019-03-25T01:21:44.584Z,65.98
2019-03-25T01:24:11.649Z,66.15
2019-03-25T01:26:38.690Z,65.45
2019-03-25T01:29:05.743Z,65.69
2019-03-25T01:31:32.799Z,65.04
2019-03-25T01:34:01.234Z,65.25
2019-03-25T01:36:28.294Z,65.08
2019-03-25T01:38:55.644Z,65.37
2019-03-25T01:41:22.709Z,65.59
2019-03-25T01:43:49.994Z,65.67
2019-03-25T01:46:17.423Z,65.91
2019-03-25T01:48:44.755Z,65.74
2019-03-25T01:51:12.056Z,64.97
2019-03-25T01:53:39.096Z,64.95
2019-03-25T01:56:06.510Z,65.59
2019-03-25T01:58:33.867Z,65.97
2019-03-25T02:01:01.240Z,66.36
2019-03-25T02:03:28.527Z,66.54
2019-03-25T02:05:55.888Z,66.13
2019-03-25T02:08:23.182Z,65.96
2019-03-25T02:10:50.246Z,65.72
2019-03-25T02:13:17.609Z,65.00
2019-03-25T02:15:44.946Z,63.90
2019-03-25T02:18:12.321Z,63.02
2019-03-25T02:20:39.380Z,63.07
2019-03-25T02:23:06.993Z,63.04
2019-03-25T02:25:34.222Z,63.38
2019-03-25T02:28:01.530Z,63.45
2019-03-25T02:30:28.812Z,63.62
2019-03-25T02:32:55.862Z,63.88
2019-03-25T02:35:23.173Z,63.85
2019-03-25T02:37:50.233Z,63.93
2019-03-25T02:40:17.574Z,64.07
2019-03-25T02:42:44.933Z,63.74
2019-03-25T02:45:12.280Z,63.77
2019-03-25T02:47:39.342Z,63.13
2019-03-25T02:50:06.633Z,63.13
2019-03-25T02:52:33.676Z,63.27
2019-03-25T02:55:00.711Z,62.92
2019-03-25T02:57:27.763Z,62.90
2019-03-25T02:59:54.807Z,62.97
2019-03-25T03:02:22.129Z,62.76
2019-03-25T03:04:49.166Z,62.84
2019-03-25T03:07:16.302Z,62.25
2019-03-25T03:09:43.602Z,62.33
2019-03-25T03:12:10.654Z,62.36
2019-03-25T03:14:38.003Z,62.41
2019-03-25T03:17:05.324Z,62.52
2019-03-25T03:19:32.606Z,62.66
2019-03-25T03:21:59.949Z,62.42
2019-03-25T03:24:28.347Z,62.73
2019-03-25T03:26:56.474Z,62.70
2019-03-25T03:29:23.504Z,62.61
2019-03-25T03:31:50.816Z,62.33
2019-03-25T03:34:17.863Z,62.49
2019-03-25T03:36:45.161Z,62.46
2019-03-25T03:39:12.425Z,62.52
2019-03-25T03:41:39.731Z,62.32
2019-03-25T03:44:07.005Z,62.51
2019-03-25T03:46:34.300Z,62.64
2019-03-25T03:49:01.592Z,62.86
2019-03-25T03:51:28.623Z,63.08
2019-03-25T03:53:55.923Z,63.25
2019-03-25T03:56:22.964Z,63.36
2019-03-25T03:58:50.528Z,63.49
2019-03-25T04:01:17.769Z,63.40
2019-03-25T04:03:44.818Z,63.55
2019-03-25T04:06:12.826Z,63.54
2019-03-25T04:08:39.881Z,63.52
2019-03-25T04:11:06.921Z,63.36
2019-03-25T04:13:33.978Z,63.74
2019-03-25T04:16:01.568Z,63.77
2019-03-25T04:18:28.937Z,64.01
2019-03-25T04:20:57.112Z,64.31
2019-03-25T04:23:24.162Z,64.50
2019-03-25T04:25:51.484Z,64.80
2019-03-25T04:28:18.782Z,64.65
2019-03-25T04:30:46.113Z,64.95
2019-03-25T04:33:13.411Z,65.00
2019-03-25T04:35:40.826Z,65.15
2019-03-25T04:38:07.881Z,64.92
2019-03-25T04:40:34.914Z,65.09
2019-03-25T04:43:02.045Z,65.54
2019-03-25T04:45:29.078Z,65.21
2019-03-25T04:47:56.451Z,65.15
2019-03-25T04:50:23.822Z,65.30
2019-03-25T04:52:51.177Z,65.10
2019-03-25T04:55:18.214Z,65.33
2019-03-25T04:57:45.268Z,65.33
2019-03-25T05:00:12.612Z,65.79
2019-03-25T05:02:39.664Z,66.11
2019-03-25T05:05:07.032Z,66.66
2019-03-25T05:07:34.090Z,66.82
2019-03-25T05:10:01.421Z,67.22
2019-03-25T05:12:28.997Z,67.67
2019-03-25T05:14:56.034Z,67.97
2019-03-25T05:17:23.091Z,67.86
2019-03-25T05:19:50.126Z,68.28
2019-03-25T05:27:32.056Z,68.65
2019-03-25T05:29:59.405Z,68.40
2019-03-25T05:32:28.009Z,67.98
2019-03-25T05:34:55.066Z,67.11
2019-03-25T05:37:22.357Z,65.01
2019-03-25T05:39:49.770Z,63.00
2019-03-25T05:42:16.830Z,60.46
2019-03-25T05:44:43.867Z,58.92
2019-03-25T05:47:10.897Z,56.45
2019-03-25T05:49:37.946Z,53.37
2019-03-25T05:52:04.987Z,52.73
2019-03-25T05:54:32.043Z,50.23
2019-03-25T05:57:02.812Z,49.54
2019-03-25T05:59:28.488Z,47.84
2019-03-25T06:01:55.527Z,46.92
2019-03-25T06:04:22.911Z,45.49
2019-03-25T06:06:52.060Z,44.57
2019-03-25T06:09:18.706Z,44.34
2019-03-25T06:11:46.083Z,42.64
2019-03-25T06:14:13.457Z,41.15
2019-03-25T06:16:40.793Z,41.06
2019-03-25T06:19:07.929Z,40.34
2019-03-25T06:21:35.214Z,39.23
2019-03-25T06:24:02.552Z,38.79
2019-03-25T06:26:30.559Z,38.15
2019-03-25T06:28:57.859Z,37.66
2019-03-25T06:31:25.151Z,37.95
2019-03-25T06:33:52.498Z,37.36
2019-03-25T06:36:19.838Z,38.10
2019-03-25T06:38:47.199Z,38.33
2019-03-25T06:41:14.247Z,38.74
2019-03-25T06:43:41.297Z,38.94
2019-03-25T06:46:08.339Z,36.38
2019-03-25T06:48:35.709Z,37.02
2019-03-25T06:51:03.052Z,36.47
2019-03-25T06:53:30.088Z,35.29
2019-03-25T06:55:57.147Z,34.33
2019-03-25T06:58:24.194Z,34.05
2019-03-25T07:00:51.258Z,34.88
2019-03-25T07:03:18.820Z,33.68
2019-03-25T07:05:45.882Z,32.68
2019-03-25T07:08:12.919Z,31.60
2019-03-25T07:10:41.047Z,31.07
2019-03-25T07:13:08.086Z,31.52
2019-03-25T07:15:35.473Z,30.78
2019-03-25T07:18:03.033Z,30.38
2019-03-25T07:20:30.086Z,29.69
2019-03-25T07:22:57.130Z,30.06
2019-03-25T07:25:24.484Z,30.76
2019-03-25T07:27:51.838Z,33.76
2019-03-25T07:30:18.891Z,36.85
2019-03-25T07:32:45.936Z,39.74
2019-03-25T07:35:12.990Z,41.25
2019-03-25T07:37:40.342Z,42.18
2019-03-25T07:40:07.395Z,42.86
2019-03-25T07:42:35.660Z,41.67
2019-03-25T07:45:02.791Z,40.78
2019-03-25T07:47:30.165Z,40.30
2019-03-25T07:49:57.219Z,40.78
2019-03-25T07:52:24.569Z,41.05
2019-03-25T07:54:51.944Z,42.06
2019-03-25T07:57:18.982Z,42.43
2019-03-25T07:59:46.049Z,42.67
2019-03-25T08:02:15.227Z,41.07
2019-03-25T08:04:42.503Z,40.20
2019-03-25T08:07:09.552Z,39.83
2019-03-25T08:09:36.911Z,39.64
2019-03-25T08:12:03.977Z,38.49
2019-03-25T08:14:31.285Z,39.20
2019-03-25T08:16:58.634Z,40.53
2019-03-25T08:19:25.746Z,42.31
2019-03-25T08:21:53.061Z,44.52
2019-03-25T08:24:20.389Z,46.14
2019-03-25T08:26:47.444Z,47.40
2019-03-25T08:29:14.813Z,48.56
2019-03-25T08:31:42.107Z,49.33
2019-03-25T08:34:09.141Z,49.51
2019-03-25T08:36:36.189Z,49.22
2019-03-25T08:39:03.474Z,49.88
2019-03-25T08:41:31.593Z,50.23
2019-03-25T08:43:58.928Z,50.15
2019-03-25T08:46:26.280Z,49.43
2019-03-25T08:48:53.325Z,49.34
2019-03-25T08:51:20.682Z,49.34
2019-03-25T08:53:47.720Z,49.13
2019-03-25T08:56:14.817Z,48.70
2019-03-25T08:58:41.802Z,49.27
2019-03-25T09:01:09.201Z,49.78
2019-03-25T09:03:36.231Z,48.37
2019-03-25T09:06:03.587Z,46.62
2019-03-25T09:08:30.619Z,44.55
2019-03-25T09:10:58.005Z,43.28
2019-03-25T09:13:25.342Z,44.89
2019-03-25T09:15:52.696Z,45.90
2019-03-25T09:18:20.060Z,44.27
2019-03-25T09:20:47.104Z,45.04
2019-03-25T09:23:14.479Z,46.60
2019-03-25T09:25:41.516Z,46.37
2019-03-25T09:28:08.876Z,47.25
2019-03-25T09:30:36.232Z,44.81
2019-03-25T09:33:03.570Z,43.51
2019-03-25T09:35:30.600Z,44.69
2019-03-25T09:37:57.974Z,45.98
2019-03-25T09:40:25.323Z,47.28
2019-03-25T09:42:52.453Z,48.11
2019-03-25T09:45:19.489Z,47.78
2019-03-25T09:47:46.544Z,48.86
2019-03-25T09:50:13.925Z,49.19
2019-03-25T09:52:41.282Z,49.78
2019-03-25T09:55:08.638Z,50.22
2019-03-25T09:57:35.690Z,50.54
2019-03-25T10:00:02.725Z,49.71
2019-03-25T10:02:30.206Z,50.10
2019-03-25T10:04:57.562Z,49.97
2019-03-25T10:07:24.903Z,50.21
2019-03-25T10:09:51.936Z,50.25
2019-03-25T10:12:18.984Z,49.46
2019-03-25T10:14:46.261Z,49.58
2019-03-25T10:17:13.323Z,49.97
2019-03-25T10:19:40.362Z,48.40
2019-03-25T10:22:07.411Z,47.73
2019-03-25T10:24:34.446Z,46.89
2019-03-25T10:27:01.812Z,47.11
2019-03-25T10:29:28.857Z,47.26
2019-03-25T10:31:55.901Z,46.91
2019-03-25T10:34:22.944Z,47.00
2019-03-25T10:36:50.231Z,47.57
2019-03-25T10:39:17.566Z,47.78
2019-03-25T10:41:44.846Z,49.35
2019-03-25T10:44:11.901Z,49.21
2019-03-25T10:46:38.929Z,49.44
2019-03-25T10:49:06.254Z,49.30
2019-03-25T10:51:33.533Z,49.78
2019-03-25T10:54:00.822Z,49.83
2019-03-25T10:56:27.853Z,49.94
2019-03-25T10:58:58.273Z,48.02
2019-03-25T11:01:23.895Z,44.56
2019-03-25T11:03:50.944Z,42.66
2019-03-25T11:06:17.982Z,42.63
2019-03-25T11:08:45.035Z,44.64
2019-03-25T11:11:12.067Z,45.43
2019-03-25T11:13:39.124Z,48.94
2019-03-25T11:16:06.155Z,50.42
2019-03-25T11:18:34.616Z,50.59
2019-03-25T11:21:01.717Z,49.01
2019-03-25T11:23:29.120Z,48.05
2019-03-25T11:25:56.154Z,47.42
2019-03-25T11:28:23.558Z,48.54
2019-03-25T11:30:50.878Z,48.45
2019-03-25T11:33:18.897Z,48.03
2019-03-25T11:35:45.934Z,46.15
2019-03-25T11:38:12.986Z,45.00
2019-03-25T11:40:40.013Z,44.05
2019-03-25T11:43:07.350Z,41.68
2019-03-25T11:45:34.387Z,37.76
2019-03-25T11:48:01.441Z,33.88
2019-03-25T11:50:28.476Z,34.54
2019-03-25T11:52:55.846Z,38.63
2019-03-25T11:55:23.225Z,43.40
2019-03-25T11:57:50.270Z,48.44
2019-03-25T12:00:17.307Z,53.59
2019-03-25T12:02:44.352Z,59.12
2019-03-25T12:05:11.390Z,63.54
2019-03-25T12:07:38.420Z,65.83
2019-03-25T12:10:05.476Z,67.29
2019-03-25T12:12:32.757Z,65.73
2019-03-25T12:15:01.595Z,65.28
2019-03-25T12:17:29.293Z,59.60
2019-03-25T12:19:56.654Z,54.54
2019-03-25T12:22:23.693Z,50.39
2019-03-25T12:24:50.745Z,46.36
2019-03-25T12:27:18.157Z,43.61
2019-03-25T12:29:45.461Z,41.91
2019-03-25T12:32:12.502Z,43.22
2019-03-25T12:34:39.553Z,46.33
2019-03-25T12:37:06.905Z,48.21
2019-03-25T12:39:33.960Z,49.94
2019-03-25T12:42:01.325Z,50.40
2019-03-25T12:44:28.375Z,49.51
2019-03-25T12:46:55.424Z,49.33
2019-03-25T12:49:22.472Z,48.31
2019-03-25T12:51:49.822Z,47.66
2019-03-25T12:54:16.856Z,47.67
2019-03-25T12:56:44.210Z,40.40
2019-03-25T12:59:11.269Z,36.74
2019-03-25T13:01:38.633Z,37.73
2019-03-25T13:04:05.679Z,36.69
2019-03-25T13:06:32.713Z,37.37
2019-03-25T13:09:00.217Z,35.32
2019-03-25T13:11:29.002Z,36.58
2019-03-25T13:13:56.327Z,38.03
2019-03-25T13:16:23.369Z,39.18
2019-03-25T13:18:50.415Z,40.42
2019-03-25T13:21:17.460Z,41.04
2019-03-25T13:23:44.487Z,42.22
2019-03-25T13:26:11.535Z,44.86
2019-03-25T13:28:38.568Z,44.41
2019-03-25T13:31:05.979Z,42.35
2019-03-25T13:33:33.335Z,43.02
2019-03-25T13:36:00.683Z,42.98
2019-03-25T13:38:28.025Z,43.76
2019-03-25T13:40:55.079Z,42.56
2019-03-25T13:43:22.422Z,42.57
2019-03-25T13:45:49.473Z,43.19
2019-03-25T13:48:16.516Z,42.68
2019-03-25T13:50:43.891Z,41.30
2019-03-25T13:53:11.247Z,41.00
2019-03-25T13:55:38.584Z,41.72
2019-03-25T13:58:05.636Z,42.09
2019-03-25T14:00:32.985Z,41.81
2019-03-25T14:03:00.344Z,42.33
2019-03-25T14:05:27.378Z,42.56
2019-03-25T14:07:54.744Z,45.17
2019-03-25T14:10:22.120Z,57.35
2019-03-25T14:12:49.177Z,60.47
2019-03-25T14:15:16.511Z,64.47
2019-03-25T14:17:43.557Z,65.32
2019-03-25T14:20:10.968Z,65.15
2019-03-25T14:22:37.973Z,65.37
2019-03-25T14:25:05.007Z,64.62
2019-03-25T14:27:32.053Z,64.22
2019-03-25T14:29:59.089Z,63.51
2019-03-25T14:32:26.133Z,64.50
2019-03-25T14:34:53.165Z,64.46
2019-03-25T14:37:20.217Z,64.65
2019-03-25T14:39:47.596Z,64.25
2019-03-25T14:42:14.957Z,64.53
2019-03-25T14:44:42.307Z,64.42
2019-03-25T14:47:09.356Z,63.74
2019-03-25T14:49:36.713Z,63.11
2019-03-25T14:52:03.762Z,61.67
2019-03-25T14:54:30.801Z,59.76
2019-03-25T14:56:58.161Z,59.25
2019-03-25T14:59:25.531Z,59.18
2019-03-25T15:01:52.872Z,58.60
2019-03-25T15:04:20.246Z,58.12
2019-03-25T15:06:47.580Z,59.11
2019-03-25T15:09:14.639Z,58.91
2019-03-25T15:11:41.983Z,59.23
2019-03-25T15:14:09.032Z,58.82
2019-03-25T15:16:36.064Z,59.78
2019-03-25T15:19:03.119Z,59.30
2019-03-25T15:21:30.483Z,59.62
2019-03-25T15:23:57.532Z,59.62
2019-03-25T15:26:24.562Z,59.33
2019-03-25T15:28:51.932Z,58.92
2019-03-25T15:31:19.288Z,57.32
2019-03-25T15:33:46.340Z,57.26
2019-03-25T15:36:13.694Z,57.46
2019-03-25T15:38:41.049Z,56.64
2019-03-25T15:41:08.401Z,56.33
2019-03-25T15:43:35.448Z,55.03
2019-03-25T15:46:02.483Z,54.72
2019-03-25T15:48:29.527Z,55.87
2019-03-25T15:50:56.918Z,55.24
2019-03-25T15:53:23.967Z,54.76
2019-03-25T15:55:51.000Z,54.97
2019-03-25T15:58:26.014Z,55.13
2019-03-25T16:00:48.502Z,55.63
2019-03-25T16:03:16.236Z,55.67
2019-03-25T16:05:49.040Z,58.95
2019-03-25T16:08:16.397Z,62.65
2019-03-25T16:10:44.401Z,65.95
2019-03-25T16:13:11.884Z,66.80
2019-03-25T16:15:42.106Z,67.17
2019-03-25T16:18:09.143Z,67.42
2019-03-25T16:20:36.427Z,67.74
2019-03-25T16:23:03.799Z,68.13
2019-03-25T16:25:31.193Z,68.45
2019-03-25T16:28:02.486Z,68.69
2019-03-25T16:30:36.653Z,68.89
2019-03-25T16:33:04.136Z,69.39
2019-03-25T16:35:31.417Z,69.51
2019-03-25T16:37:58.819Z,69.68
2019-03-25T16:40:41.432Z,69.80
2019-03-25T16:43:11.756Z,69.70
2019-03-25T16:45:41.868Z,69.69
2019-03-25T16:50:58.595Z,71.01
2019-03-25T16:53:32.977Z,72.31
2019-03-25T16:56:01.176Z,72.54
2019-03-25T16:58:28.453Z,72.51
2019-03-25T17:00:56.599Z,72.60
2019-03-25T17:03:24.821Z,72.43
2019-03-25T17:08:38.815Z,72.45
2019-03-25T17:11:07.316Z,71.54
2019-03-25T17:13:36.547Z,71.28
2019-03-25T17:16:13.794Z,70.24
2019-03-25T17:18:40.873Z,70.27
2019-03-25T17:21:10.051Z,70.56
2019-03-25T17:23:40.295Z,70.27
2019-03-25T17:26:24.804Z,69.87
2019-03-25T17:31:31.451Z,70.35
2019-03-25T17:33:59.620Z,70.49
2019-03-25T17:36:29.709Z,70.74
2019-03-25T17:47:03.043Z,72.13
2019-03-25T17:49:32.567Z,72.46
2019-03-25T17:52:04.029Z,72.58
2019-03-25T17:54:31.302Z,72.69
2019-03-25T17:57:04.869Z,73.08
2019-03-25T17:59:37.178Z,73.42
2019-03-25T18:02:11.367Z,73.70
2019-03-25T18:04:38.637Z,73.73
2019-03-25T18:07:10.071Z,73.64
2019-03-25T18:09:37.515Z,74.54
2019-03-25T18:12:07.020Z,74.56
2019-03-25T18:14:34.459Z,75.13
2019-03-25T18:17:03.695Z,74.91
2019-03-25T18:19:30.963Z,74.94
2019-03-25T18:22:07.917Z,75.19
2019-03-25T18:24:35.268Z,75.32
2019-03-25T18:27:04.476Z,75.71
2019-03-25T18:29:31.752Z,75.52
2019-03-25T18:32:05.503Z,75.52
2019-03-25T18:37:11.295Z,75.51
2019-03-25T18:45:09.758Z,75.55
2019-03-25T18:47:39.005Z,76.07
2019-03-25T18:52:50.399Z,76.39
2019-03-25T18:55:17.759Z,76.25
2019-03-25T18:57:51.073Z,76.30
2019-03-25T19:05:48.992Z,76.57
2019-03-25T19:08:21.274Z,76.33
2019-03-25T19:10:51.698Z,76.43
2019-03-25T19:13:31.313Z,76.62
2019-03-25T19:15:59.415Z,76.50
2019-03-25T19:18:26.476Z,76.72
2019-03-25T19:20:56.617Z,76.77
2019-03-25T19:23:23.656Z,76.42
2019-03-25T19:28:28.041Z,75.95
2019-03-25T19:30:59.930Z,75.77
2019-03-25T19:33:45.378Z,75.68
2019-03-25T19:38:59.696Z,75.44
2019-03-25T19:44:04.033Z,74.76
2019-03-25T19:46:32.188Z,74.67
2019-03-25T19:49:07.799Z,74.54
2019-03-25T19:51:38.370Z,74.59
2019-03-25T19:54:05.440Z,75.52
2019-03-25T19:56:32.520Z,76.15
2019-03-25T20:01:49.673Z,76.49
2019-03-25T20:04:17.958Z,76.85
2019-03-25T20:06:50.107Z,77.25
2019-03-25T20:09:24.719Z,77.28
2019-03-25T20:14:33.313Z,78.05
2019-03-25T20:17:03.481Z,77.65
2019-03-25T20:19:30.657Z,78.02
2019-03-25T20:24:38.339Z,78.54
2019-03-25T20:27:05.440Z,78.33
2019-03-25T20:29:38.640Z,78.28
2019-03-25T20:32:07.835Z,78.52
2019-03-25T20:34:37.906Z,79.19
2019-03-25T20:37:09.696Z,80.43
2019-03-25T20:39:49.098Z,79.87
2019-03-25T20:42:17.290Z,80.17
2019-03-25T20:44:45.008Z,80.42
2019-03-25T20:47:12.293Z,80.65
2019-03-25T20:49:45.321Z,80.50
2019-03-25T20:52:12.611Z,80.75
2019-03-25T20:54:45.740Z,80.92
2019-03-25T20:57:12.802Z,81.03
2019-03-25T20:59:52.320Z,81.17
2019-03-25T21:02:21.609Z,80.98
2019-03-25T21:04:49.908Z,81.06
2019-03-25T21:07:19.208Z,81.18
2019-03-25T21:09:55.346Z,81.01
2019-03-25T21:12:24.879Z,81.08
2019-03-25T21:15:08.372Z,81.27
2019-03-25T21:17:40.223Z,81.39
2019-03-25T21:20:09.406Z,81.41
2019-03-25T21:22:38.960Z,81.45
2019-03-25T21:25:11.178Z,81.25
2019-03-25T21:30:17.755Z,81.70
2019-03-25T21:32:57.247Z,81.60
2019-03-25T21:35:16.866Z,81.78
2019-03-25T21:37:43.960Z,81.77
2019-03-25T21:40:11.390Z,81.81
2019-03-25T21:42:38.769Z,81.60
2019-03-25T21:45:06.056Z,81.58
2019-03-25T21:47:33.405Z,81.69
2019-03-25T21:50:00.547Z,81.98
2019-03-25T21:52:28.973Z,82.20
2019-03-25T21:54:55.992Z,82.22
2019-03-25T21:57:23.366Z,82.50
2019-03-25T21:59:50.393Z,82.45
2019-03-25T22:02:17.507Z,82.12
2019-03-25T22:04:44.558Z,82.21
2019-03-25T22:07:11.865Z,82.27
2019-03-25T22:09:38.907Z,82.28
2019-03-25T22:12:06.048Z,82.25
2019-03-25T22:14:33.101Z,82.20
2019-03-25T22:17:00.148Z,82.13
2019-03-25T22:19:27.200Z,82.14
2019-03-25T22:21:54.238Z,82.05
2019-03-25T22:24:21.573Z,82.09
2019-03-25T22:26:48.609Z,81.96
2019-03-25T22:29:15.658Z,81.77
2019-03-25T22:31:42.698Z,81.50
2019-03-25T22:34:09.750Z,81.37
2019-03-25T22:36:37.138Z,81.61
2019-03-25T22:39:04.185Z,81.59
2019-03-25T22:41:31.538Z,81.69
2019-03-25T22:43:58.883Z,81.32
2019-03-25T22:46:25.914Z,81.35
2019-03-25T22:48:52.969Z,81.08
2019-03-25T22:51:20.012Z,81.09
2019-03-25T22:53:47.380Z,80.84
2019-03-25T22:56:14.740Z,80.89
2019-03-25T22:58:42.084Z,80.65
2019-03-25T23:01:09.441Z,80.62
2019-03-25T23:03:39.443Z,80.65
2019-03-25T23:06:05.380Z,80.21
2019-03-25T23:08:32.429Z,80.09
2019-03-25T23:10:59.783Z,80.04
2019-03-25T23:13:26.835Z,80.04
2019-03-25T23:15:54.186Z,79.95
2019-03-25T23:18:21.242Z,79.58
2019-03-25T23:20:48.588Z,79.48
2019-03-25T23:23:15.626Z,79.58
2019-03-25T23:25:42.682Z,79.57
2019-03-25T23:28:09.964Z,79.72
2019-03-25T23:30:37.293Z,79.80
2019-03-25T23:33:04.331Z,79.66
2019-03-25T23:35:31.625Z,80.20
2019-03-25T23:37:58.741Z,80.30
2019-03-25T23:40:26.125Z,80.43
2019-03-25T23:42:53.129Z,80.61
2019-03-25T23:45:20.181Z,81.08
2019-03-25T23:47:47.217Z,80.98
2019-03-25T23:50:14.268Z,81.13
2019-03-25T23:52:41.296Z,81.31
2019-03-25T23:55:08.589Z,81.61
2019-03-25T23:57:35.947Z,81.50
